< < Back
Terminal Aerodrome Forecast


Current Version              Previous Versions:   1  2  3  4  5  6  7  8  9  

Terminal Aerodrome Forecast

095
FTUS44 KBMX 051100
TAFBHM
TAF
KBHM 051140Z 0512/0612 36010KT 3SM -RA BR OVC006
      TEMPO 0512/0514 SCT006 OVC012
     FM051430 35012KT 4SM -RAPL BR SCT007 OVC012
     FM051600 35010G20KT 4SM -FZRA BR SCT007 OVC012
     FM052000 35012G20KT P6SM OVC015
     FM060200 36012KT P6SM OVC025=



Latest METAR

456
SAUS70 KWBC 051600 RRD
MTRBHM
METAR KBHM 051553Z 01011KT 10SM OVC009 02/01 A3017 RMK AO2 CIG 006V013
SLP217 RAE50 P0003 T00220006


USA.gov is the U.S. government's official web portal to all federal, state and local government web resources and services.